createdAt,value
2023-03-24T00:00:31.018Z,51.47
2023-03-24T00:03:01.466Z,50.37
2023-03-24T00:05:30.507Z,47.47
2023-03-24T00:08:05.236Z,47.73
2023-03-24T00:10:34.735Z,52.30
2023-03-24T00:13:02.520Z,48.63
2023-03-24T00:15:30.276Z,41.80
2023-03-24T00:17:58.557Z,44.23
2023-03-24T00:20:26.150Z,43.10
2023-03-24T00:22:59.209Z,50.63
2023-03-24T00:25:29.374Z,50.23
2023-03-24T00:27:57.537Z,47.77
2023-03-24T00:30:25.346Z,49.00
2023-03-24T00:32:53.110Z,47.60
2023-03-24T00:35:20.493Z,49.50
2023-03-24T00:37:47.205Z,49.30
2023-03-24T00:40:17.407Z,48.20
2023-03-24T00:42:46.276Z,44.07
2023-03-24T00:45:18.292Z,44.20
2023-03-24T00:47:46.634Z,54.83
2023-03-24T00:50:15.917Z,46.90
2023-03-24T00:52:44.361Z,48.97
2023-03-24T00:55:16.138Z,49.23
2023-03-24T00:57:50.653Z,52.40
2023-03-24T01:00:24.263Z,49.73
2023-03-24T01:02:53.829Z,51.70
2023-03-24T01:05:23.472Z,48.03
2023-03-24T01:07:56.398Z,50.93
2023-03-24T01:10:27.003Z,49.07
2023-03-24T01:12:56.271Z,51.50
2023-03-24T01:15:26.599Z,49.30
2023-03-24T01:17:54.938Z,43.07
2023-03-24T01:20:23.844Z,47.07
2023-03-24T01:22:51.745Z,44.10
2023-03-24T01:25:21.430Z,44.30
2023-03-24T01:27:50.258Z,40.47
2023-03-24T01:30:19.945Z,39.13
2023-03-24T01:32:48.261Z,33.50
2023-03-24T01:35:16.475Z,36.00
2023-03-24T01:37:44.908Z,34.33
2023-03-24T01:40:21.134Z,36.23
2023-03-24T01:42:49.448Z,27.75
2023-03-24T01:45:54.029Z,39.77
2023-03-24T01:48:29.893Z,32.00
2023-03-24T01:51:12.989Z,28.97
2023-03-24T01:53:44.477Z,29.03
2023-03-24T01:56:12.247Z,37.30
2023-03-24T01:58:42.721Z,31.80
2023-03-24T02:01:11.014Z,29.00
2023-03-24T02:03:40.297Z,37.37
2023-03-24T02:06:08.627Z,35.27
2023-03-24T02:08:38.644Z,31.80
2023-03-24T02:11:06.682Z,30.13
2023-03-24T02:13:35.145Z,29.07
2023-03-24T02:16:14.725Z,30.63
2023-03-24T02:18:52.673Z,27.07
2023-03-24T02:21:44.689Z,31.63
2023-03-24T02:24:49.065Z,29.97
2023-03-24T02:27:37.459Z,42.87
2023-03-24T02:30:10.676Z,30.00
2023-03-24T02:33:01.417Z,29.73
2023-03-24T02:35:30.976Z,28.80
2023-03-24T02:38:26.585Z,32.20
2023-03-24T02:41:11.508Z,32.37
2023-03-24T02:43:58.723Z,31.03
2023-03-24T02:46:56.775Z,34.27
2023-03-24T02:49:35.280Z,29.92
2023-03-24T02:52:05.446Z,28.73
2023-03-24T02:54:58.857Z,30.87
2023-03-24T02:57:45.245Z,31.97
2023-03-24T03:00:35.354Z,32.33
2023-03-24T03:03:11.493Z,32.27
2023-03-24T03:06:18.351Z,31.87
2023-03-24T03:08:56.561Z,33.80
2023-03-24T03:11:24.601Z,28.30
2023-03-24T03:13:55.825Z,29.20
2023-03-24T03:16:25.626Z,28.47
2023-03-24T03:18:56.174Z,34.10
2023-03-24T03:21:24.896Z,31.33
2023-03-24T03:23:59.481Z,32.40
2023-03-24T03:26:32.817Z,31.10
2023-03-24T03:29:25.691Z,33.57
2023-03-24T03:31:59.782Z,31.53
2023-03-24T03:34:32.017Z,30.90
2023-03-24T03:37:31.420Z,32.67
2023-03-24T03:40:00.081Z,31.37
2023-03-24T03:42:27.847Z,32.60
2023-03-24T03:44:55.686Z,35.07
2023-03-24T03:47:24.298Z,25.70
2023-03-24T03:49:51.528Z,31.40
2023-03-24T03:52:18.707Z,34.27
2023-03-24T03:54:45.408Z,28.17
2023-03-24T03:57:13.927Z,24.80
2023-03-24T03:59:41.905Z,26.53
2023-03-24T04:02:28.310Z,28.23
2023-03-24T04:05:06.814Z,26.13
2023-03-24T04:07:44.148Z,27.33
2023-03-24T04:10:41.959Z,33.77
2023-03-24T04:13:15.398Z,27.70
2023-03-24T04:15:44.943Z,28.93
2023-03-24T04:18:25.556Z,23.93
2023-03-24T04:20:57.865Z,27.43
2023-03-24T04:23:33.925Z,29.57
2023-03-24T04:26:16.370Z,24.92
2023-03-24T04:29:05.067Z,29.77
2023-03-24T04:31:40.428Z,29.23
2023-03-24T04:34:29.416Z,26.93
2023-03-24T04:37:13.780Z,31.97
2023-03-24T04:39:42.789Z,30.50
2023-03-24T04:42:23.438Z,29.07
2023-03-24T04:45:03.228Z,28.60
2023-03-24T04:47:32.021Z,28.27
2023-03-24T04:50:03.563Z,30.83
2023-03-24T04:52:31.186Z,29.30
2023-03-24T04:54:58.328Z,27.17
2023-03-24T04:57:27.937Z,24.73
2023-03-24T04:59:55.816Z,29.17
2023-03-24T05:02:24.114Z,23.57
2023-03-24T05:04:51.587Z,22.73
2023-03-24T05:07:19.747Z,23.07
2023-03-24T05:09:47.440Z,23.83
2023-03-24T05:12:14.890Z,23.87
2023-03-24T05:14:43.089Z,29.97
2023-03-24T05:17:10.732Z,29.40
2023-03-24T05:19:39.182Z,30.57
2023-03-24T05:22:07.509Z,30.63
2023-03-24T05:24:37.854Z,29.97
2023-03-24T05:27:05.818Z,25.37
2023-03-24T05:29:33.904Z,24.90
2023-03-24T05:32:01.825Z,29.87
2023-03-24T05:34:30.015Z,31.33
2023-03-24T05:36:57.467Z,28.53
2023-03-24T05:39:25.544Z,30.13
2023-03-24T05:41:53.594Z,41.13
2023-03-24T05:44:21.621Z,43.30
2023-03-24T05:46:50.357Z,46.50
2023-03-24T05:49:18.565Z,39.37
2023-03-24T05:52:06.027Z,41.10
2023-03-24T05:57:02.073Z,38.47
2023-03-24T05:59:30.442Z,39.13
2023-03-24T06:01:58.488Z,35.97
2023-03-24T06:04:29.944Z,38.93
2023-03-24T06:07:18.368Z,37.07
2023-03-24T06:09:47.651Z,42.40
2023-03-24T06:12:16.340Z,43.23
2023-03-24T06:14:45.419Z,41.53
2023-03-24T06:17:15.162Z,51.20
2023-03-24T06:19:50.055Z,56.97
2023-03-24T06:22:19.109Z,56.67
2023-03-24T06:24:47.992Z,54.83
2023-03-24T06:27:15.751Z,54.27
2023-03-24T06:29:43.710Z,57.50
2023-03-24T06:32:11.427Z,56.70
2023-03-24T06:34:40.510Z,52.30
2023-03-24T06:37:08.027Z,58.83
2023-03-24T06:39:36.810Z,62.63
2023-03-24T06:42:05.265Z,64.63
2023-03-24T06:44:33.099Z,70.73
2023-03-24T06:47:00.561Z,66.33
2023-03-24T06:49:28.230Z,73.33
2023-03-24T06:51:56.297Z,94.57
2023-03-24T06:54:24.403Z,81.20
2023-03-24T06:56:53.051Z,79.87
2023-03-24T06:59:23.810Z,81.33
2023-03-24T07:02:14.377Z,72.27
2023-03-24T07:04:43.073Z,66.47
2023-03-24T07:07:38.168Z,73.10
2023-03-24T07:09:58.448Z,64.33
2023-03-24T07:12:26.490Z,67.57
2023-03-24T07:14:53.918Z,64.60
2023-03-24T07:17:25.342Z,64.67
2023-03-24T07:19:53.275Z,73.60
2023-03-24T07:22:20.927Z,66.90
2023-03-24T07:24:48.962Z,68.47
2023-03-24T07:27:16.943Z,68.73
2023-03-24T07:29:47.980Z,62.33
2023-03-24T07:32:16.164Z,64.47
2023-03-24T07:34:46.050Z,67.90
2023-03-24T07:37:13.597Z,62.57
2023-03-24T07:39:41.355Z,64.40
2023-03-24T07:42:11.039Z,69.33
2023-03-24T07:44:39.943Z,66.63
2023-03-24T07:47:11.380Z,64.33
2023-03-24T07:49:39.320Z,67.67
2023-03-24T07:52:07.214Z,64.13
2023-03-24T07:54:34.835Z,62.23
2023-03-24T07:57:03.040Z,57.53
2023-03-24T07:59:30.498Z,63.03
2023-03-24T08:01:59.894Z,62.77
2023-03-24T08:04:29.036Z,56.77
2023-03-24T08:06:57.278Z,60.70
2023-03-24T08:09:25.095Z,61.57
2023-03-24T08:11:53.158Z,56.13
2023-03-24T08:14:21.216Z,63.40
2023-03-24T08:16:48.979Z,60.97
2023-03-24T08:19:16.530Z,56.37
2023-03-24T08:21:44.264Z,63.10
2023-03-24T08:24:12.007Z,58.27
2023-03-24T08:26:40.267Z,62.03
2023-03-24T08:29:08.302Z,56.77
2023-03-24T08:31:36.741Z,56.63
2023-03-24T08:34:04.810Z,57.23
2023-03-24T08:36:32.982Z,60.47
2023-03-24T08:39:01.499Z,54.23
2023-03-24T08:41:37.134Z,58.37
2023-03-24T08:44:06.708Z,55.97
2023-03-24T08:46:34.544Z,56.27
2023-03-24T08:49:02.705Z,57.73
2023-03-24T08:51:34.509Z,56.53
2023-03-24T08:54:03.922Z,56.83
2023-03-24T08:56:31.926Z,50.37
2023-03-24T08:58:59.737Z,45.90
2023-03-24T09:01:28.433Z,53.47
2023-03-24T09:03:56.331Z,54.90
2023-03-24T09:06:24.542Z,54.07
2023-03-24T09:08:52.576Z,53.00
2023-03-24T09:11:20.969Z,54.10
2023-03-24T09:13:49.104Z,48.27
2023-03-24T09:16:16.890Z,47.23
2023-03-24T09:18:44.616Z,47.70
2023-03-24T09:21:12.359Z,42.93
2023-03-24T09:23:40.495Z,41.23
2023-03-24T09:26:11.650Z,44.33
2023-03-24T09:28:39.710Z,37.77
2023-03-24T09:31:07.817Z,36.97
2023-03-24T09:33:35.367Z,43.47
2023-03-24T09:36:03.178Z,38.87
2023-03-24T09:38:31.324Z,35.87
2023-03-24T09:41:03.036Z,37.40
2023-03-24T09:43:54.499Z,33.33
2023-03-24T09:46:34.766Z,32.80
2023-03-24T09:49:01.461Z,29.87
2023-03-24T09:51:41.476Z,28.43
2023-03-24T09:54:08.154Z,23.13
2023-03-24T09:56:37.982Z,25.80
2023-03-24T09:59:07.313Z,19.70
2023-03-24T10:01:35.417Z,23.60
2023-03-24T10:04:03.311Z,19.97
2023-03-24T10:06:38.637Z,19.87
2023-03-24T10:09:20.408Z,23.67
2023-03-24T10:11:47.266Z,20.77
2023-03-24T10:14:27.117Z,19.40
2023-03-24T10:17:01.702Z,21.77
2023-03-24T10:19:42.766Z,17.63
2023-03-24T10:22:16.882Z,15.53
2023-03-24T10:25:08.293Z,13.60
2023-03-24T10:27:42.701Z,4.17
2023-03-24T10:30:24.310Z,7.33
2023-03-24T10:32:52.421Z,4.67
2023-03-24T10:35:28.681Z,9.13
2023-03-24T10:37:58.768Z,4.90
2023-03-24T10:40:33.201Z,5.87
2023-03-24T10:43:07.230Z,3.70
2023-03-24T10:45:39.293Z,5.85
2023-03-24T10:48:07.740Z,8.03
2023-03-24T10:50:36.003Z,5.53
2023-03-24T10:53:09.940Z,4.67
2023-03-24T10:55:39.004Z,2.37
2023-03-24T10:58:12.604Z,2.67
2023-03-24T11:00:42.700Z,1.90
2023-03-24T11:03:12.773Z,3.60
2023-03-24T11:05:40.325Z,6.57
2023-03-24T11:08:30.097Z,8.13
2023-03-24T11:10:57.324Z,4.85
2023-03-24T11:13:25.117Z,3.72
2023-03-24T11:16:17.206Z,6.47
2023-03-24T11:19:23.692Z,4.68
2023-03-24T11:21:52.007Z,4.43
2023-03-24T11:24:21.227Z,3.10
2023-03-24T11:27:01.839Z,2.95
2023-03-24T11:29:33.460Z,4.50
2023-03-24T11:32:05.902Z,3.53
2023-03-24T11:34:38.597Z,3.78
2023-03-24T11:37:06.348Z,3.70
2023-03-24T11:39:34.234Z,3.60
2023-03-24T11:42:13.500Z,3.72
2023-03-24T11:44:53.480Z,4.13
2023-03-24T11:47:40.426Z,4.70
2023-03-24T11:53:04.283Z,4.27
2023-03-24T11:55:49.670Z,10.80
2023-03-24T11:58:35.635Z,4.90
2023-03-24T12:01:07.738Z,5.83
2023-03-24T12:04:04.536Z,3.67
2023-03-24T12:06:41.351Z,4.43
2023-03-24T12:09:14.796Z,4.07
2023-03-24T12:11:44.789Z,5.73
2023-03-24T12:14:12.681Z,3.43
2023-03-24T12:17:03.760Z,5.43
2023-03-24T12:19:33.228Z,4.20
2023-03-24T12:22:03.094Z,5.75
2023-03-24T12:24:38.514Z,4.63
2023-03-24T12:27:07.813Z,3.83
2023-03-24T12:30:08.659Z,7.50
2023-03-24T12:32:59.382Z,3.47
2023-03-24T12:35:44.917Z,8.45
2023-03-24T12:38:33.540Z,4.50
2023-03-24T12:41:15.854Z,3.05
2023-03-24T12:43:43.220Z,6.47
2023-03-24T12:46:47.790Z,4.88
2023-03-24T12:49:32.440Z,3.42
2023-03-24T12:52:33.307Z,5.45
2023-03-24T12:55:06.234Z,3.60
2023-03-24T12:57:41.446Z,7.32
2023-03-24T13:00:16.211Z,4.70
2023-03-24T13:02:46.210Z,5.28
2023-03-24T13:05:19.990Z,5.50
2023-03-24T13:07:54.381Z,5.70
2023-03-24T13:10:27.969Z,4.00
2023-03-24T13:13:11.092Z,5.57
2023-03-24T13:16:04.126Z,5.20
2023-03-24T13:18:39.783Z,4.40
2023-03-24T13:21:15.311Z,5.07
2023-03-24T13:24:09.891Z,4.82
2023-03-24T13:26:58.698Z,5.43
2023-03-24T13:29:45.597Z,5.22
2023-03-24T13:32:24.591Z,5.40
2023-03-24T13:35:16.243Z,5.10
2023-03-24T13:37:47.114Z,7.43
2023-03-24T13:40:27.468Z,7.53
2023-03-24T13:42:56.986Z,5.60
2023-03-24T13:45:41.269Z,5.40
2023-03-24T13:48:11.039Z,4.90
2023-03-24T13:51:11.417Z,5.85
2023-03-24T13:53:51.544Z,5.50
2023-03-24T13:56:35.741Z,7.60
2023-03-24T13:59:02.942Z,4.80
2023-03-24T14:01:41.336Z,7.25
2023-03-24T14:04:43.972Z,6.20
2023-03-24T14:07:40.755Z,6.47
2023-03-24T14:10:21.912Z,6.07
2023-03-24T14:13:12.006Z,8.23
2023-03-24T14:15:45.493Z,6.63
2023-03-24T14:18:24.253Z,7.03
2023-03-24T14:20:57.195Z,4.30
2023-03-24T14:23:25.925Z,6.93
2023-03-24T14:25:56.292Z,6.50
2023-03-24T14:28:27.912Z,5.78
2023-03-24T14:31:02.809Z,8.85
2023-03-24T14:33:31.169Z,4.75
2023-03-24T14:36:02.950Z,4.72
2023-03-24T14:38:30.749Z,4.90
2023-03-24T14:41:00.535Z,4.95
2023-03-24T14:43:38.198Z,4.90
2023-03-24T14:46:35.445Z,4.63
2023-03-24T14:49:26.434Z,7.38
2023-03-24T14:51:58.394Z,4.90
2023-03-24T14:54:57.026Z,3.67
2023-03-24T14:57:35.756Z,6.35
2023-03-24T15:00:15.671Z,7.88
2023-03-24T15:02:45.402Z,6.93
2023-03-24T15:05:18.212Z,8.23
2023-03-24T15:07:48.563Z,7.10
2023-03-24T15:10:18.022Z,3.63
2023-03-24T15:12:50.190Z,5.95
2023-03-24T15:15:24.367Z,3.70
2023-03-24T15:17:51.755Z,4.05
2023-03-24T15:20:24.918Z,2.65
2023-03-24T15:23:01.640Z,5.55
2023-03-24T15:27:57.765Z,9.05
2023-03-24T15:30:25.312Z,4.90
2023-03-24T15:32:52.980Z,3.53
2023-03-24T15:35:22.387Z,7.20
2023-03-24T15:38:21.456Z,4.80
2023-03-24T15:41:00.538Z,3.83
2023-03-24T15:43:28.715Z,4.67
2023-03-24T15:46:08.868Z,4.47
2023-03-24T15:48:38.930Z,5.53
2023-03-24T15:51:10.297Z,5.13
2023-03-24T15:53:52.394Z,9.23
2023-03-24T15:56:20.708Z,10.73
2023-03-24T15:59:15.205Z,3.57
2023-03-24T16:01:45.160Z,5.13
2023-03-24T16:04:17.535Z,6.30
2023-03-24T16:06:52.858Z,5.13
2023-03-24T16:09:22.330Z,6.57
2023-03-24T16:11:50.192Z,9.30
2023-03-24T16:14:24.160Z,4.73
2023-03-24T16:17:18.935Z,12.30
2023-03-24T16:19:47.021Z,7.87
2023-03-24T16:22:14.943Z,10.10
2023-03-24T16:24:42.440Z,6.37
2023-03-24T16:27:12.383Z,5.97
2023-03-24T16:29:40.233Z,8.17
2023-03-24T16:32:08.863Z,9.37
2023-03-24T16:34:37.231Z,14.23
2023-03-24T16:37:05.071Z,10.57
2023-03-24T16:39:32.874Z,9.63
2023-03-24T16:42:00.704Z,8.00
2023-03-24T16:44:28.620Z,11.43
2023-03-24T16:46:55.428Z,7.87
2023-03-24T16:49:24.381Z,10.97
2023-03-24T16:51:53.042Z,6.53
2023-03-24T16:54:21.178Z,9.03
2023-03-24T16:56:49.015Z,9.80
2023-03-24T16:59:17.091Z,11.83
2023-03-24T17:01:45.770Z,6.63
2023-03-24T17:04:16.254Z,7.97
2023-03-24T17:06:44.464Z,11.37
2023-03-24T17:09:12.731Z,12.23
2023-03-24T17:11:43.388Z,9.43
2023-03-24T17:14:12.382Z,11.77
2023-03-24T17:17:04.594Z,9.07
2023-03-24T17:19:33.113Z,8.17
2023-03-24T17:22:21.915Z,9.40
2023-03-24T17:24:57.588Z,7.00
2023-03-24T17:27:25.234Z,15.93
2023-03-24T17:29:53.157Z,9.33
2023-03-24T17:32:22.399Z,11.60
2023-03-24T17:34:50.447Z,13.93
2023-03-24T17:37:18.546Z,13.03
2023-03-24T17:39:46.458Z,7.33
2023-03-24T17:42:14.237Z,11.77
2023-03-24T17:44:42.739Z,9.50
2023-03-24T17:49:51.748Z,8.83
2023-03-24T17:52:19.858Z,17.17
2023-03-24T17:54:47.742Z,11.27
2023-03-24T17:57:15.616Z,8.20
2023-03-24T17:59:43.303Z,11.13
2023-03-24T18:02:11.224Z,10.00
2023-03-24T18:04:38.926Z,9.33
2023-03-24T18:07:06.623Z,13.23
2023-03-24T18:09:34.116Z,13.17
2023-03-24T18:12:02.354Z,12.03
2023-03-24T18:14:30.241Z,8.50
2023-03-24T18:16:57.987Z,18.07
2023-03-24T18:19:26.084Z,14.27
2023-03-24T18:21:54.703Z,15.07
2023-03-24T18:24:22.371Z,12.27
2023-03-24T18:26:50.511Z,14.40
2023-03-24T18:29:18.210Z,13.33
2023-03-24T18:31:46.241Z,17.07
2023-03-24T18:34:14.209Z,14.00
2023-03-24T18:36:42.223Z,9.63
2023-03-24T18:39:09.683Z,12.13
2023-03-24T18:41:37.922Z,15.93
2023-03-24T18:44:10.211Z,15.47
2023-03-24T18:46:39.066Z,13.67
2023-03-24T18:49:07.250Z,14.57
2023-03-24T18:51:35.613Z,19.67
2023-03-24T18:54:06.315Z,22.03
2023-03-24T18:56:34.038Z,10.10
2023-03-24T18:59:02.946Z,10.23
2023-03-24T19:01:33.151Z,10.07
2023-03-24T19:04:01.035Z,8.40
2023-03-24T19:06:31.600Z,7.40
2023-03-24T19:08:59.519Z,10.67
2023-03-24T19:11:27.615Z,11.80
2023-03-24T19:13:56.931Z,11.20
2023-03-24T19:16:24.961Z,13.17
2023-03-24T19:18:52.762Z,7.90
2023-03-24T19:21:23.172Z,11.07
2023-03-24T19:23:52.896Z,8.47
2023-03-24T19:26:21.058Z,8.03
2023-03-24T19:28:48.638Z,14.70
2023-03-24T19:31:19.703Z,10.30
2023-03-24T19:33:47.530Z,14.13
2023-03-24T19:36:15.709Z,15.10
2023-03-24T19:38:44.212Z,20.10
2023-03-24T19:41:13.083Z,19.33
2023-03-24T19:43:39.851Z,15.20
2023-03-24T19:46:07.905Z,17.47
2023-03-24T19:48:35.710Z,17.13
2023-03-24T19:51:03.587Z,16.03
2023-03-24T19:53:30.829Z,8.67
2023-03-24T19:55:58.845Z,11.27
2023-03-24T19:58:27.766Z,11.17
2023-03-24T20:00:55.516Z,7.27
2023-03-24T20:03:23.537Z,11.23
2023-03-24T20:05:51.567Z,8.67
2023-03-24T20:08:19.817Z,11.67
2023-03-24T20:10:47.370Z,7.63
2023-03-24T20:13:15.368Z,11.57
2023-03-24T20:15:43.272Z,10.03
2023-03-24T20:18:15.161Z,11.33
2023-03-24T20:20:43.154Z,13.77
2023-03-24T20:23:10.781Z,7.87
2023-03-24T20:26:04.320Z,8.03
2023-03-24T20:28:31.437Z,12.63
2023-03-24T20:31:02.711Z,7.93
2023-03-24T20:33:30.528Z,13.20
2023-03-24T20:35:58.827Z,14.23
2023-03-24T20:38:27.342Z,17.83
2023-03-24T20:41:00.543Z,8.23
2023-03-24T20:43:28.415Z,10.43
2023-03-24T20:45:59.688Z,10.47
2023-03-24T20:48:27.791Z,13.07
2023-03-24T20:50:55.833Z,14.83
2023-03-24T20:53:24.998Z,11.00
2023-03-24T20:55:59.060Z,10.17
2023-03-24T20:58:27.543Z,7.57
2023-03-24T21:00:56.196Z,15.67
2023-03-24T21:03:24.299Z,7.80
2023-03-24T21:05:55.351Z,10.47
2023-03-24T21:08:23.616Z,10.83
2023-03-24T21:10:55.235Z,8.10
2023-03-24T21:13:23.497Z,8.53
2023-03-24T21:15:51.704Z,7.90
2023-03-24T21:18:20.162Z,9.07
2023-03-24T21:21:13.765Z,6.83
2023-03-24T21:23:42.099Z,6.60
2023-03-24T21:26:24.312Z,9.30
2023-03-24T21:28:52.947Z,8.83
2023-03-24T21:31:24.588Z,10.37
2023-03-24T21:33:52.923Z,10.27
2023-03-24T21:36:22.043Z,7.47
2023-03-24T21:38:49.844Z,11.83
2023-03-24T21:41:19.110Z,7.20
2023-03-24T21:43:47.007Z,8.57
2023-03-24T21:46:37.488Z,6.67
2023-03-24T21:49:05.467Z,7.50
2023-03-24T21:51:42.859Z,7.40
2023-03-24T21:54:11.289Z,8.80
2023-03-24T21:56:38.825Z,8.20
2023-03-24T21:59:06.533Z,10.13
2023-03-24T22:01:40.560Z,8.37
2023-03-24T22:04:08.758Z,7.83
2023-03-24T22:06:39.518Z,10.57
2023-03-24T22:09:08.262Z,14.43
2023-03-24T22:11:35.898Z,9.50
2023-03-24T22:14:03.815Z,7.57
2023-03-24T22:16:33.107Z,8.60
2023-03-24T22:19:01.871Z,7.50
2023-03-24T22:21:32.277Z,7.80
2023-03-24T22:24:00.282Z,7.73
2023-03-24T22:26:28.085Z,7.93
2023-03-24T22:28:56.285Z,10.33
2023-03-24T22:31:24.656Z,6.70
2023-03-24T22:34:03.768Z,11.23
2023-03-24T22:36:31.852Z,7.90
2023-03-24T22:38:59.943Z,4.57
2023-03-24T22:41:28.174Z,5.93
2023-03-24T22:43:55.836Z,6.73
2023-03-24T22:46:24.691Z,10.73
2023-03-24T22:48:52.568Z,8.20
2023-03-24T22:51:20.867Z,7.60
2023-03-24T22:53:51.341Z,8.30
2023-03-24T22:56:19.047Z,8.00
2023-03-24T22:58:47.229Z,10.57
2023-03-24T23:01:15.568Z,11.30
2023-03-24T23:03:44.066Z,12.77
2023-03-24T23:06:11.864Z,9.13
2023-03-24T23:08:40.190Z,11.40
2023-03-24T23:11:08.593Z,14.30
2023-03-24T23:13:36.785Z,10.73
2023-03-24T23:16:06.052Z,12.03
2023-03-24T23:18:34.269Z,8.90
2023-03-24T23:21:03.345Z,9.10
2023-03-24T23:23:31.705Z,10.97
2023-03-24T23:25:59.502Z,8.30
2023-03-24T23:28:28.238Z,10.27
2023-03-24T23:30:56.117Z,8.73
2023-03-24T23:33:24.395Z,12.03
2023-03-24T23:35:56.187Z,8.93
2023-03-24T23:38:23.846Z,16.80
2023-03-24T23:40:51.024Z,10.47
2023-03-24T23:43:18.833Z,9.97
2023-03-24T23:45:46.889Z,12.73
2023-03-24T23:48:14.594Z,7.53
2023-03-24T23:50:46.328Z,12.63
2023-03-24T23:53:14.371Z,9.50
2023-03-24T23:55:41.897Z,7.10
2023-03-24T23:58:09.476Z,5.03
